Portada
METAR-TAF:

METAR-TAF

Aeroports :

Sarakhs, Iran

latitud: 36-30-04N, longitud: 061-03-54E, altitud: 288 m

Observació

L'informe es va fer fa 29 minuts, a les 18:00 UTC
Vent 2 kt del Est/Nord-Est
Temperatura 16°C
Humitat 27%
Pressió 1018 hPa

METAR: OIMC 301800Z AUTO 06002KT //// // ////// 16/M03 Q1018

Hora: 21:59 (18:29 UTC)


TAF: manca

Observacions i pronòstics meteorològics de més de 4000 aeroports (METAR i TAF).

Les estacions disponibles són els punts grocs i vermells al mapa.

Posi el ratolí al punt desitjat per veure el nom de l'estació.

Feu clic per veure les observacions i els pronòstics meteorològics.

Per canviar el mapa: feu clic els botons verds amb una creu de color negre per apropar; al botó verd amb un guió per allunyar la imatge; o en les fletxes verdes per a mapes adjacents.


METAR-TAF: